createdAt,value
2022-08-21T00:01:23.263Z,99715.44
2022-08-21T00:03:53.272Z,99733.03
2022-08-21T00:06:23.474Z,99730.31
2022-08-21T00:08:54.621Z,99725.19
2022-08-21T00:11:25.550Z,99717.88
2022-08-21T00:13:56.613Z,99703.81
2022-08-21T00:16:27.075Z,99689.53
2022-08-21T00:18:57.626Z,99687.94
2022-08-21T00:21:27.881Z,99682.22
2022-08-21T00:23:58.025Z,99683.31
2022-08-21T00:26:28.733Z,99687.09
2022-08-21T00:28:59.306Z,99668.19
2022-08-21T00:31:31.463Z,99665.97
2022-08-21T00:34:02.007Z,99680.59
2022-08-21T00:36:32.208Z,99697.59
2022-08-21T00:39:02.257Z,99687.91
2022-08-21T00:41:37.512Z,99700.56
2022-08-21T00:44:14.235Z,99709.22
2022-08-21T00:46:45.859Z,99704.66
2022-08-21T00:49:16.770Z,99689.22
2022-08-21T00:51:58.104Z,99674.66
2022-08-21T00:54:32.642Z,99656.81
2022-08-21T00:57:07.419Z,99666.31
2022-08-21T00:59:41.269Z,99671.16
2022-08-21T01:02:12.610Z,99675.19
2022-08-21T01:04:43.521Z,99663.53
2022-08-21T01:07:14.908Z,99670.25
2022-08-21T01:09:46.048Z,99676.47
2022-08-21T01:12:17.096Z,99667.50
2022-08-21T01:14:48.092Z,99668.00
2022-08-21T01:17:20.035Z,99657.97
2022-08-21T01:19:50.661Z,99663.94
2022-08-21T01:22:21.707Z,99664.44
2022-08-21T01:24:52.428Z,99663.06
2022-08-21T01:27:23.332Z,99662.50
2022-08-21T01:30:24.964Z,99660.31
2022-08-21T01:32:56.936Z,99656.53
2022-08-21T01:35:27.019Z,99649.75
2022-08-21T01:37:57.028Z,99649.47
2022-08-21T01:40:27.079Z,99653.81
2022-08-21T01:42:57.510Z,99658.13
2022-08-21T01:45:27.624Z,99667.34
2022-08-21T01:47:57.680Z,99672.44
2022-08-21T01:50:27.712Z,99672.16
2022-08-21T01:52:57.833Z,99669.72
2022-08-21T01:55:28.166Z,99667.81
2022-08-21T01:57:58.129Z,99652.06
2022-08-21T02:00:28.483Z,99648.78
2022-08-21T02:02:58.792Z,99651.47
2022-08-21T02:05:29.076Z,99657.13
2022-08-21T02:08:00.795Z,99653.59
2022-08-21T02:10:34.669Z,99648.66
2022-08-21T02:13:05.995Z,99648.94
2022-08-21T02:15:36.837Z,99654.59
2022-08-21T02:18:09.152Z,99652.13
2022-08-21T02:20:44.219Z,99654.00
2022-08-21T02:23:15.261Z,99653.72
2022-08-21T02:25:45.925Z,99654.47
2022-08-21T02:28:18.357Z,99650.59
2022-08-21T02:30:50.138Z,99640.75
2022-08-21T02:33:21.776Z,99639.84
2022-08-21T02:35:54.264Z,99647.13
2022-08-21T02:38:28.395Z,99653.88
2022-08-21T02:41:00.001Z,99664.97
2022-08-21T02:43:31.184Z,99661.72
2022-08-21T02:46:02.194Z,99662.22
2022-08-21T02:48:34.081Z,99657.03
2022-08-21T02:51:08.799Z,99652.44
2022-08-21T02:53:40.373Z,99636.41
2022-08-21T02:56:14.440Z,99633.63
2022-08-21T02:58:51.134Z,99631.66
2022-08-21T03:01:22.543Z,99617.53
2022-08-21T03:03:53.074Z,99623.97
2022-08-21T03:06:26.874Z,99609.25
2022-08-21T03:08:57.094Z,99616.19
2022-08-21T03:11:28.950Z,99610.91
2022-08-21T03:13:59.618Z,99592.06
2022-08-21T03:16:43.910Z,99583.06
2022-08-21T03:19:14.761Z,99586.00
2022-08-21T03:21:44.774Z,99583.28
2022-08-21T03:24:14.759Z,99578.97
2022-08-21T03:26:48.175Z,99576.25
2022-08-21T03:29:18.422Z,99556.47
2022-08-21T03:31:48.465Z,99546.94
2022-08-21T03:34:20.340Z,99542.28
2022-08-21T03:36:51.788Z,99546.63
2022-08-21T03:39:22.176Z,99548.56
2022-08-21T03:41:52.664Z,99545.31
2022-08-21T03:44:22.681Z,99550.22
2022-08-21T03:46:52.592Z,99547.28
2022-08-21T03:49:22.890Z,99556.81
2022-08-21T03:52:04.595Z,99554.88
2022-08-21T03:54:36.038Z,99553.59
2022-08-21T03:57:07.357Z,99549.25
2022-08-21T03:59:38.610Z,99551.44
2022-08-21T04:02:10.018Z,99545.22
2022-08-21T04:04:40.703Z,99530.31
2022-08-21T04:07:10.832Z,99537.97
2022-08-21T04:09:41.021Z,99547.19
2022-08-21T04:12:11.567Z,99544.75
2022-08-21T04:14:41.659Z,99545.59
2022-08-21T04:17:11.637Z,99536.63
2022-08-21T04:19:41.600Z,99532.03
2022-08-21T04:22:11.566Z,99536.31
2022-08-21T04:24:41.582Z,99536.03
2022-08-21T04:27:11.533Z,99523.53
2022-08-21T04:29:41.482Z,99524.53
2022-08-21T04:32:11.819Z,99516.34
2022-08-21T04:34:41.771Z,99531.16
2022-08-21T04:37:11.702Z,99532.69
2022-08-21T04:39:41.649Z,99533.41
2022-08-21T04:42:11.791Z,99529.81
2022-08-21T04:44:41.807Z,99524.63
2022-08-21T04:47:11.756Z,99516.69
2022-08-21T04:49:41.774Z,99514.69
2022-08-21T04:52:12.119Z,99527.34
2022-08-21T04:54:42.786Z,99538.41
2022-08-21T04:57:13.450Z,99534.03
2022-08-21T04:59:51.490Z,99534.25
2022-08-21T05:02:25.011Z,99524.38
2022-08-21T05:04:57.547Z,99525.41
2022-08-21T05:07:41.892Z,99507.44
2022-08-21T05:10:16.194Z,99509.22
2022-08-21T05:12:47.611Z,99506.75
2022-08-21T05:15:19.557Z,99513.19
2022-08-21T05:17:52.327Z,99507.47
2022-08-21T05:20:24.335Z,99488.94
2022-08-21T05:22:58.503Z,99476.94
2022-08-21T05:25:30.844Z,99468.69
2022-08-21T05:28:01.182Z,99466.50
2022-08-21T05:30:32.325Z,99474.66
2022-08-21T05:33:08.421Z,99470.53
2022-08-21T05:35:40.777Z,99453.44
2022-08-21T05:38:16.512Z,99447.69
2022-08-21T05:40:57.798Z,99431.06
2022-08-21T05:43:28.787Z,99430.47
2022-08-21T05:45:58.867Z,99427.44
2022-08-21T05:48:28.781Z,99408.13
2022-08-21T05:50:59.559Z,99410.53
2022-08-21T05:53:32.166Z,99402.38
2022-08-21T05:56:05.735Z,99397.25
2022-08-21T05:58:37.395Z,99396.47
2022-08-21T06:01:08.949Z,99398.69
2022-08-21T06:03:43.370Z,99400.28
2022-08-21T06:06:13.595Z,99395.13
2022-08-21T06:08:44.740Z,99391.31
2022-08-21T06:11:15.804Z,99387.00
2022-08-21T06:13:49.772Z,99383.78
2022-08-21T06:16:20.674Z,99380.88
2022-08-21T06:18:51.749Z,99385.81
2022-08-21T06:21:22.733Z,99384.19
2022-08-21T06:23:53.196Z,99381.47
2022-08-21T06:26:24.629Z,99376.53
2022-08-21T06:28:56.037Z,99386.50
2022-08-21T06:31:29.840Z,99383.19
2022-08-21T06:34:00.248Z,99392.31
2022-08-21T06:36:30.386Z,99376.50
2022-08-21T06:39:00.328Z,99378.31
2022-08-21T06:41:32.089Z,99364.13
2022-08-21T06:44:20.652Z,99361.59
2022-08-21T06:47:00.779Z,99356.34
2022-08-21T06:49:39.962Z,99353.13
2022-08-21T06:52:15.180Z,99350.63
2022-08-21T06:54:54.498Z,99346.56
2022-08-21T06:57:25.076Z,99340.03
2022-08-21T06:59:55.266Z,99336.72
2022-08-21T07:02:25.237Z,99331.81
2022-08-21T07:04:55.279Z,99334.41
2022-08-21T07:07:24.685Z,99329.94
2022-08-21T07:09:54.613Z,99333.47
2022-08-21T07:12:24.574Z,99335.38
2022-08-21T07:14:54.500Z,99332.66
2022-08-21T07:17:24.638Z,99318.59
2022-08-21T07:19:54.729Z,99306.91
2022-08-21T07:22:25.806Z,99303.84
2022-08-21T07:24:56.714Z,99300.53
2022-08-21T07:27:27.369Z,99307.59
2022-08-21T07:29:57.116Z,99312.38
2022-08-21T07:32:27.704Z,99302.50
2022-08-21T07:34:57.837Z,99308.13
2022-08-21T07:37:28.021Z,99306.09
2022-08-21T07:39:58.904Z,99303.25
2022-08-21T07:42:29.256Z,99297.81
2022-08-21T07:45:01.961Z,99295.56
2022-08-21T07:47:42.800Z,99300.22
2022-08-21T07:50:16.036Z,99295.56
2022-08-21T07:52:47.346Z,99293.97
2022-08-21T07:55:22.196Z,99302.63
2022-08-21T07:57:52.877Z,99304.53
2022-08-21T08:00:26.865Z,99298.59
2022-08-21T08:02:58.502Z,99301.44
2022-08-21T08:05:32.431Z,99307.00
2022-08-21T08:08:02.859Z,99299.00
2022-08-21T08:10:33.673Z,99289.34
2022-08-21T08:13:04.682Z,99285.16
2022-08-21T08:15:37.600Z,99287.47
2022-08-21T08:18:08.719Z,99291.13
2022-08-21T08:20:39.052Z,99273.78
2022-08-21T08:23:09.845Z,99259.22
2022-08-21T08:25:40.229Z,99264.78
2022-08-21T08:28:16.975Z,99269.84
2022-08-21T08:30:49.069Z,99265.66
2022-08-21T08:33:22.839Z,99272.28
2022-08-21T08:35:54.465Z,99272.91
2022-08-21T08:38:27.185Z,99264.56
2022-08-21T08:41:13.132Z,99263.28
2022-08-21T08:43:47.977Z,99257.94
2022-08-21T08:46:21.894Z,99250.41
2022-08-21T08:49:02.209Z,99252.63
2022-08-21T08:51:39.785Z,99251.63
2022-08-21T08:54:16.767Z,99244.59
2022-08-21T08:56:48.297Z,99239.72
2022-08-21T08:59:23.476Z,99235.72
2022-08-21T09:01:54.240Z,99226.25
2022-08-21T09:04:31.173Z,99214.91
2022-08-21T09:07:28.530Z,99217.44
2022-08-21T09:10:17.667Z,99238.16
2022-08-21T09:13:22.610Z,99235.56
2022-08-21T09:16:25.608Z,99237.59
2022-08-21T09:19:08.014Z,99245.22
2022-08-21T09:21:43.985Z,99245.81
2022-08-21T09:24:50.040Z,99242.09
2022-08-21T09:27:24.456Z,99239.19
2022-08-21T09:29:59.890Z,99253.06
2022-08-21T09:32:37.847Z,99254.47
2022-08-21T09:35:21.995Z,99262.91
2022-08-21T09:37:58.107Z,99261.63
2022-08-21T09:40:48.094Z,99262.22
2022-08-21T09:43:22.203Z,99258.22
2022-08-21T09:46:22.221Z,99242.53
2022-08-21T09:49:57.934Z,99242.03
2022-08-21T09:52:33.914Z,99247.22
2022-08-21T09:55:26.537Z,99247.00
2022-08-21T09:57:57.167Z,99246.50
2022-08-21T10:00:33.198Z,99251.13
2022-08-21T10:03:16.029Z,99246.28
2022-08-21T10:05:58.491Z,99254.72
2022-08-21T10:08:31.863Z,99251.50
2022-08-21T10:11:26.979Z,99252.63
2022-08-21T10:14:05.056Z,99260.28
2022-08-21T10:16:37.899Z,99256.22
2022-08-21T10:19:11.070Z,99254.94
2022-08-21T10:22:12.076Z,99249.31
2022-08-21T10:25:14.164Z,99247.69
2022-08-21T10:28:15.880Z,99244.75
2022-08-21T10:31:19.506Z,99232.91
2022-08-21T10:34:12.453Z,99235.09
2022-08-21T10:36:46.823Z,99229.47
2022-08-21T10:39:35.873Z,99229.25
2022-08-21T10:42:11.356Z,99232.91
2022-08-21T10:44:53.789Z,99238.59
2022-08-21T10:47:35.906Z,99236.47
2022-08-21T10:50:15.025Z,99237.91
2022-08-21T10:53:03.193Z,99247.72
2022-08-21T10:55:46.722Z,99249.41
2022-08-21T10:58:34.198Z,99256.50
2022-08-21T11:01:23.504Z,99265.22
2022-08-21T11:04:18.853Z,99266.09
2022-08-21T11:07:01.821Z,99271.28
2022-08-21T11:09:34.909Z,99280.34
2022-08-21T11:12:16.132Z,99266.25
2022-08-21T11:14:58.281Z,99266.03
2022-08-21T11:17:39.748Z,99272.06
2022-08-21T11:20:24.541Z,99274.56
2022-08-21T11:23:25.647Z,99285.97
2022-08-21T11:26:04.831Z,99305.50
2022-08-21T11:28:44.020Z,99302.28
2022-08-21T11:32:05.455Z,99285.03
2022-08-21T11:35:05.621Z,99289.41
2022-08-21T11:38:05.780Z,99297.59
2022-08-21T11:40:41.914Z,99299.78
2022-08-21T11:43:33.521Z,99306.59
2022-08-21T11:46:20.802Z,99312.88
2022-08-21T11:49:03.254Z,99319.97
2022-08-21T11:51:50.492Z,99321.63
2022-08-21T11:54:31.801Z,99315.47
2022-08-21T11:57:12.839Z,99321.75
2022-08-21T11:59:50.279Z,99321.00
2022-08-21T12:02:26.069Z,99328.09
2022-08-21T12:05:08.169Z,99331.66
2022-08-21T12:07:42.934Z,99343.06
2022-08-21T12:10:25.256Z,99345.56
2022-08-21T12:12:55.565Z,99349.09
2022-08-21T12:15:25.463Z,99343.47
2022-08-21T12:18:05.638Z,99354.84
2022-08-21T12:21:15.269Z,99355.72
2022-08-21T12:24:24.274Z,99356.00
2022-08-21T12:27:30.777Z,99362.78
2022-08-21T12:30:09.302Z,99355.00
2022-08-21T12:32:45.390Z,99360.72
2022-08-21T12:35:40.920Z,99361.78
2022-08-21T12:38:35.523Z,99358.81
2022-08-21T12:41:21.062Z,99371.56
2022-08-21T12:44:07.401Z,99379.94
2022-08-21T12:46:47.639Z,99374.81
2022-08-21T12:49:29.414Z,99373.47
2022-08-21T12:52:04.989Z,99370.75
2022-08-21T12:54:43.453Z,99379.19
2022-08-21T12:57:24.313Z,99387.31
2022-08-21T13:00:01.415Z,99392.16
2022-08-21T13:02:39.735Z,99390.84
2022-08-21T13:05:15.452Z,99393.81
2022-08-21T13:07:51.571Z,99396.81
2022-08-21T13:10:32.742Z,99392.28
2022-08-21T13:13:25.822Z,99400.41
2022-08-21T13:16:06.057Z,99407.47
2022-08-21T13:18:54.405Z,99398.88
2022-08-21T13:21:35.196Z,99392.41
2022-08-21T13:24:43.375Z,99376.75
2022-08-21T13:27:30.981Z,99388.94
2022-08-21T13:30:12.622Z,99388.69
2022-08-21T13:32:49.196Z,99390.84
2022-08-21T13:35:25.616Z,99371.97
2022-08-21T13:37:58.745Z,99368.75
2022-08-21T13:40:42.559Z,99350.09
2022-08-21T13:43:26.596Z,99333.66
2022-08-21T13:45:58.814Z,99337.72
2022-08-21T13:48:37.151Z,99329.63
2022-08-21T13:51:08.921Z,99328.06
2022-08-21T13:53:39.042Z,99328.63
2022-08-21T13:56:10.064Z,99318.91
2022-08-21T13:58:51.140Z,99334.06
2022-08-21T14:01:38.928Z,99331.94
2022-08-21T14:04:51.064Z,99310.34
2022-08-21T14:07:47.041Z,99304.19
2022-08-21T14:10:25.961Z,99321.19
2022-08-21T14:13:04.752Z,99322.28
2022-08-21T14:15:38.531Z,99320.66
2022-08-21T14:18:28.825Z,99322.03
2022-08-21T14:21:12.095Z,99332.31
2022-08-21T14:23:47.268Z,99319.09
2022-08-21T14:26:23.032Z,99314.25
2022-08-21T14:28:54.547Z,99323.44
2022-08-21T14:31:35.778Z,99326.47
2022-08-21T14:34:19.584Z,99330.78
2022-08-21T14:36:52.070Z,99332.41
2022-08-21T14:39:23.495Z,99324.56
2022-08-21T14:41:59.884Z,99327.00
2022-08-21T14:44:30.196Z,99324.59
2022-08-21T14:47:04.491Z,99331.34
2022-08-21T14:49:39.118Z,99340.53
2022-08-21T14:52:09.677Z,99334.88
2022-08-21T14:54:41.123Z,99321.91
2022-08-21T14:57:14.717Z,99300.59
2022-08-21T14:59:45.965Z,99287.69
2022-08-21T15:02:16.387Z,99301.44
2022-08-21T15:04:47.230Z,99296.31
2022-08-21T15:07:17.838Z,99286.06
2022-08-21T15:09:51.260Z,99286.34
2022-08-21T15:12:22.492Z,99282.84
2022-08-21T15:14:53.512Z,99285.28
2022-08-21T15:17:25.187Z,99295.28
2022-08-21T15:19:55.946Z,99298.25
2022-08-21T15:22:29.695Z,99301.75
2022-08-21T15:25:00.409Z,99295.53
2022-08-21T15:27:33.875Z,99288.00
2022-08-21T15:30:08.210Z,99295.56
2022-08-21T15:32:40.359Z,99280.16
2022-08-21T15:35:12.008Z,99268.06
2022-08-21T15:37:44.297Z,99268.84
2022-08-21T15:40:16.653Z,99277.50
2022-08-21T15:42:48.996Z,99271.56
2022-08-21T15:45:19.745Z,99265.63
2022-08-21T15:47:53.323Z,99257.81
2022-08-21T15:50:24.535Z,99257.03
2022-08-21T15:52:56.450Z,99270.50
2022-08-21T15:55:28.316Z,99260.78
2022-08-21T15:58:05.708Z,99254.59
2022-08-21T16:00:40.716Z,99259.19
2022-08-21T16:03:16.503Z,99246.78
2022-08-21T16:05:51.824Z,99244.63
2022-08-21T16:08:23.952Z,99254.34
2022-08-21T16:10:57.837Z,99255.13
2022-08-21T16:13:33.397Z,99266.72
2022-08-21T16:16:04.231Z,99264.03
2022-08-21T16:18:35.543Z,99264.59
2022-08-21T16:21:06.585Z,99264.59
2022-08-21T16:23:39.913Z,99254.59
2022-08-21T16:26:14.165Z,99245.72
2022-08-21T16:28:50.995Z,99237.88
2022-08-21T16:31:23.568Z,99248.94
2022-08-21T16:33:58.099Z,99257.31
2022-08-21T16:36:29.453Z,99260.28
2022-08-21T16:39:02.864Z,99245.47
2022-08-21T16:41:38.125Z,99226.28
2022-08-21T16:44:09.788Z,99231.97
2022-08-21T16:46:44.410Z,99247.59
2022-08-21T16:49:15.394Z,99245.22
2022-08-21T16:51:49.211Z,99238.19
2022-08-21T16:54:20.422Z,99218.00
2022-08-21T16:56:54.189Z,99216.63
2022-08-21T16:59:26.048Z,99216.63
2022-08-21T17:01:57.431Z,99218.25
2022-08-21T17:04:30.952Z,99229.03
2022-08-21T17:07:01.526Z,99230.09
2022-08-21T17:09:31.898Z,99229.28
2022-08-21T17:12:02.310Z,99215.00
2022-08-21T17:14:32.684Z,99219.84
2022-08-21T17:17:07.257Z,99234.41
2022-08-21T17:19:38.553Z,99240.88
2022-08-21T17:22:10.394Z,99247.09
2022-08-21T17:24:41.197Z,99233.91
2022-08-21T17:27:11.879Z,99239.81
2022-08-21T17:29:43.382Z,99245.47
2022-08-21T17:32:16.438Z,99238.47
2022-08-21T17:34:48.824Z,99225.00
2022-08-21T17:37:19.257Z,99220.41
2022-08-21T17:39:50.185Z,99218.00
2022-08-21T17:42:20.806Z,99224.72
2022-08-21T17:44:51.082Z,99228.50
2022-08-21T17:47:21.774Z,99231.19
2022-08-21T17:49:52.024Z,99213.13
2022-08-21T17:52:22.520Z,99193.47
2022-08-21T17:54:52.652Z,99192.66
2022-08-21T17:57:29.300Z,99184.28
2022-08-21T17:59:59.970Z,99183.50
2022-08-21T18:02:33.196Z,99175.69
2022-08-21T18:05:03.632Z,99166.78
2022-08-21T18:07:33.728Z,99158.44
2022-08-21T18:10:07.547Z,99150.34
2022-08-21T18:12:38.028Z,99137.41
2022-08-21T18:15:09.232Z,99132.00
2022-08-21T18:17:39.462Z,99130.38
2022-08-21T18:20:10.548Z,99122.81
2022-08-21T18:22:40.790Z,99123.66
2022-08-21T18:25:11.095Z,99122.31
2022-08-21T18:27:43.973Z,99117.44
2022-08-21T18:30:17.714Z,99119.06
2022-08-21T18:32:48.562Z,99119.06
2022-08-21T18:35:19.453Z,99125.53
2022-08-21T18:37:49.738Z,99131.47
2022-08-21T18:40:19.920Z,99140.91
2022-08-21T18:42:55.879Z,99145.50
2022-08-21T18:45:26.971Z,99150.88
2022-08-21T18:47:59.359Z,99146.56
2022-08-21T18:50:31.433Z,99149.25
2022-08-21T18:53:01.569Z,99145.75
2022-08-21T18:55:39.972Z,99156.28
2022-08-21T18:58:11.497Z,99150.59
2022-08-21T19:00:48.452Z,99155.16
2022-08-21T19:03:24.647Z,99157.59
2022-08-21T19:05:56.243Z,99147.63
2022-08-21T19:08:30.373Z,99148.44
2022-08-21T19:11:03.869Z,99146.81
2022-08-21T19:13:37.829Z,99155.72
2022-08-21T19:16:09.740Z,99149.50
2022-08-21T19:18:43.306Z,99156.78
2022-08-21T19:21:14.065Z,99152.47
2022-08-21T19:23:44.791Z,99145.50
2022-08-21T19:26:14.853Z,99159.75
2022-08-21T19:28:47.259Z,99148.97
2022-08-21T19:31:23.752Z,99147.38
2022-08-21T19:34:07.760Z,99143.34
2022-08-21T19:36:38.778Z,99132.56
2022-08-21T19:39:14.301Z,99131.50
2022-08-21T19:41:51.099Z,99118.28
2022-08-21T19:44:26.030Z,99119.88
2022-08-21T19:46:59.149Z,99122.03
2022-08-21T19:49:33.458Z,99130.63
2022-08-21T19:52:12.957Z,99131.22
2022-08-21T19:54:44.486Z,99140.91
2022-08-21T19:57:15.372Z,99147.09
2022-08-21T19:59:46.975Z,99146.00
2022-08-21T20:02:21.271Z,99147.09
2022-08-21T20:04:53.790Z,99163.25
2022-08-21T20:10:15.781Z,99173.75
2022-08-21T20:12:49.592Z,99168.88
2022-08-21T20:15:23.284Z,99165.91
2022-08-21T20:17:54.735Z,99171.88
2022-08-21T20:20:24.953Z,99171.88
2022-08-21T20:23:01.313Z,99170.81
2022-08-21T20:25:42.063Z,99170.81
2022-08-21T20:28:12.270Z,99166.22
2022-08-21T20:30:46.826Z,99161.09
2022-08-21T20:33:18.973Z,99164.63
2022-08-21T20:35:51.265Z,99164.63
2022-08-21T20:38:22.399Z,99154.63
2022-08-21T20:40:54.786Z,99153.56
2022-08-21T20:43:25.546Z,99156.25
2022-08-21T20:45:58.529Z,99157.84
2022-08-21T20:48:49.513Z,99155.16
2022-08-21T20:51:32.017Z,99157.06
2022-08-21T20:54:28.550Z,99157.84
2022-08-21T20:57:22.928Z,99158.69
2022-08-21T20:59:58.500Z,99169.47
2022-08-21T21:02:31.451Z,99184.81
2022-08-21T21:05:24.968Z,99195.88
2022-08-21T21:08:07.247Z,99192.88
2022-08-21T21:11:19.621Z,99190.19
2022-08-21T21:14:02.015Z,99189.66
2022-08-21T21:16:45.883Z,99183.75
2022-08-21T21:19:37.339Z,99193.44
2022-08-21T21:22:15.903Z,99184.53
2022-08-21T21:25:03.091Z,99187.50
2022-08-21T21:27:55.516Z,99193.72
2022-08-21T21:30:25.996Z,99188.06
2022-08-21T21:32:56.292Z,99186.44
2022-08-21T21:35:36.483Z,99196.94
2022-08-21T21:38:14.601Z,99205.03
2022-08-21T21:40:47.786Z,99211.75
2022-08-21T21:43:49.559Z,99207.19
2022-08-21T21:46:31.404Z,99207.47
2022-08-21T21:49:29.012Z,99196.97
2022-08-21T21:52:21.661Z,99204.25
2022-08-21T21:55:13.406Z,99199.38
2022-08-21T21:58:36.857Z,99200.97
2022-08-21T22:01:17.865Z,99213.38
2022-08-21T22:03:52.267Z,99215.00
2022-08-21T22:06:39.111Z,99215.00
2022-08-21T22:09:20.263Z,99222.00
2022-08-21T22:11:59.864Z,99230.09
2022-08-21T22:14:41.730Z,99229.28
2022-08-21T22:17:35.090Z,99226.59
2022-08-21T22:20:17.938Z,99231.97
2022-08-21T22:22:49.351Z,99244.66
2022-08-21T22:25:26.260Z,99238.97
2022-08-21T22:28:13.200Z,99243.31
2022-08-21T22:30:53.764Z,99240.88
2022-08-21T22:33:33.854Z,99236.84
2022-08-21T22:36:20.986Z,99234.97
2022-08-21T22:38:50.977Z,99236.56
2022-08-21T22:44:24.894Z,99244.66
2022-08-21T22:47:01.799Z,99253.00
2022-08-21T22:49:50.986Z,99251.66
2022-08-21T22:52:25.739Z,99254.63
2022-08-21T22:55:01.779Z,99258.09
2022-08-21T22:57:37.127Z,99265.13
2022-08-21T23:00:14.818Z,99261.06
2022-08-21T23:02:58.418Z,99258.63
2022-08-21T23:05:31.364Z,99265.09
2022-08-21T23:08:24.340Z,99274.78
2022-08-21T23:11:01.415Z,99278.56
2022-08-21T23:13:40.384Z,99285.03
2022-08-21T23:16:34.380Z,99277.19
2022-08-21T23:19:28.674Z,99279.88
2022-08-21T23:22:15.778Z,99267.44
2022-08-21T23:25:19.274Z,99281.97
2022-08-21T23:28:03.854Z,99292.72
2022-08-21T23:30:56.747Z,99286.00
2022-08-21T23:33:26.623Z,99285.97
2022-08-21T23:36:53.312Z,99290.56
2022-08-21T23:39:32.443Z,99290.81
2022-08-21T23:42:36.164Z,99285.38
2022-08-21T23:45:19.465Z,99309.41
2022-08-21T23:48:29.677Z,99322.34
2022-08-21T23:51:25.046Z,99331.78
2022-08-21T23:53:58.123Z,99329.31
2022-08-21T23:56:34.452Z,99335.00
2022-08-21T23:59:28.200Z,99340.66
